Terminal Aerodrome Forecast
Issued by NWS Billings, MT

Home | Current Version | Previous Version | Text Only | Print | Product List | Glossary On
Versions: 1 2 3 4 5 6 7 8 9 10 11 12 13
000
FTUS45 KBYZ 231740
TAFBIL
TAF
KBIL 231740Z 2318/2418 27022G27KT P6SM VCSH FEW060 BKN090 BKN200
     FM240200 26015KT P6SM BKN090
     FM241400 29016KT P6SM BKN070=

USA.gov is the U.S. government's official web portal to all federal, state and local government web resources and services.